Columbus, MT

2:33 AM MDT on July 11, 2014 (GMT -0600)
Bearpaw Ranch (KMTCOLUM8) Elev 4577 ft | 45.55 °N, 109.22 °W | Change Station

Current weather conditions updated 1 minute ago

Clear
Clear
69.6 °F
Feels Like 69.6 °F
N
3.0
Wind Variable Wind from SSE
Gusts 6.0 mph

Today is forecast to be nearly the same temperature as yesterday.

Today
High -- | Low -- °F
--% Chance of Precip.
Yesterday
High -- | Low -- °F
Precip. -- in
5:38 AM 9:05 PM
Waxing Gibbous, 98% visible
Pressure 29.78 in
Visibility 10.0 miles
Clouds Clear
Dew Point 48 °F
Humidity 47%
Rainfall 0.00 in
Snow Depth Not available.
UV 0 out of 12
Pollen 5.30 out of 12
Air Quality Not available.
Flu Activity Sporadic
METAR KBIL 110753Z 35003KT 10SM CLR 22/11 A2991 RMK AO2 SLP084 T02170106

More Conditions Fewer Conditions

Pressure 29.78 in
Visibility 10.0 miles
Clouds Clear
Dew Point 48 °F
Humidity 47%
Rainfall 0.00 in
Snow Depth Not available.
UV 0 out of 12
Pollen 5.30 out of 12
Air Quality Not available.
Flu Activity Sporadic
METAR KBIL 110753Z 35003KT 10SM CLR 22/11 A2991 RMK AO2 SLP084 T02170106

More Conditions Fewer Conditions

10-Day Weather Forecast

Almanac

Astronomy

Jul. 11, 2014 Rise Set
Actual Time 5:38 AM MDT 9:05 PM MDT
Civil Twilight 5:01 AM MDT 9:42 PM MDT
Nautical Twilight 4:13 AM MDT 10:31 PM MDT
Astronomical Twilight 3:10 AM MDT 11:33 PM MDT
Moon 8:14 PM MDT 4:57 AM MDT
Length of Visible Light 16h 40m
Length of Day
15h 26m
Tomorrow will be 1m 30s shorter.
Waxing Gibbous, 98% of the Moon is Illuminated
Today
Waxing Gibbous
Jul 12
Full
Jul 18
Last Quarter
Jul 26
New
Aug 3
First Quarter

Today's Extremes

State Highs State Lows

Community

WunderPhotos

Upload Photos

1,732,402 photos uploaded!

WunderBlogs® & News

Nearby

Snow Depth

Station Depth Elevation
Burnt Mountain 1 in 5880 ft
Cole Creek 0 in 7850 ft
Placer Basin 0 in 8830 ft
White Mill 2 in 8700 ft
Monument Peak 0 in 8850 ft

Earthquake Activity

City Distance Mag. Time & Date
No recent earthquake activity has been reported nearby.
Minimum magnitude displayed is 2.5.

Coastal Water Temperatures

Place Temperature
No Stations Reporting

Nearby Weather Stations

Station Location Temp. Heat Index Dew Point Humidity Wind Precip. Elev Updated Type
Bearpaw Ranch, Columbus, MT 69.6 °F - 48 °F 47% SSE  at  3.0 mph 0.00 in / hr 4577 ft 2:32 AM MDT Normal
Yellowstone River Ranch, Pinecrest, Columbus, MT 69.5 °F - 51 °F 51% West  at  3.0 mph 0.00 in / hr 4147 ft 2:33 AM MDT Rapid Fire
HADS STILLWATER RIVER NEAR ABSAROKEE MT, Absarokee, MT 58 °F - - - North  at  - 0.00 in / hr 3950 ft 1:15 AM MDT MADIS
NW Joliet,MT, Joliet, MT 74.7 °F 78 °F 55 °F 51% SE  at  6.1 mph 0.00 in / hr 4160 ft 11:14 PM MDT Rapid Fire
RAWS FISHTAIL MT, Fishtail, MT 69 °F - 44 °F 41% NW  at  4 mph 0.00 in / hr 4549 ft 1:22 AM MDT MADIS

Show More Stations Show Fewer Stations